createdAt,value
2023-02-22T00:00:33.423Z,0.40
2023-02-22T00:01:33.429Z,0.40
2023-02-22T00:02:33.423Z,0.40
2023-02-22T00:03:33.427Z,0.40
2023-02-22T00:04:33.424Z,0.50
2023-02-22T00:05:33.429Z,0.40
2023-02-22T00:06:33.420Z,0.30
2023-02-22T00:07:33.427Z,0.40
2023-02-22T00:08:33.418Z,0.40
2023-02-22T00:09:33.432Z,0.40
2023-02-22T00:10:33.430Z,0.30
2023-02-22T00:11:33.424Z,0.50
2023-02-22T00:12:33.416Z,0.40
2023-02-22T00:13:33.439Z,0.40
2023-02-22T00:14:33.436Z,0.40
2023-02-22T00:15:33.421Z,0.40
2023-02-22T00:16:33.478Z,0.40
2023-02-22T00:17:33.421Z,0.40
2023-02-22T00:18:33.412Z,0.40
2023-02-22T00:19:33.419Z,0.40
2023-02-22T00:20:33.412Z,0.40
2023-02-22T00:21:33.418Z,0.40
2023-02-22T00:22:33.412Z,0.40
2023-02-22T00:23:33.424Z,0.40
2023-02-22T00:24:33.409Z,0.30
2023-02-22T00:25:33.421Z,0.40
2023-02-22T00:26:33.419Z,0.40
2023-02-22T00:27:33.443Z,0.40
2023-02-22T00:28:33.407Z,0.40
2023-02-22T00:29:33.414Z,0.40
2023-02-22T00:30:33.491Z,0.70
2023-02-22T00:31:33.510Z,0.40
2023-02-22T00:32:33.429Z,0.40
2023-02-22T00:33:33.411Z,0.40
2023-02-22T00:34:33.403Z,0.50
2023-02-22T00:35:33.410Z,0.40
2023-02-22T00:36:33.402Z,0.40
2023-02-22T00:37:33.409Z,0.40
2023-02-22T00:38:33.403Z,0.40
2023-02-22T00:39:33.410Z,0.60
2023-02-22T00:40:33.409Z,0.50
2023-02-22T00:41:33.452Z,0.50
2023-02-22T00:42:33.400Z,0.50
2023-02-22T00:43:33.425Z,0.40
2023-02-22T00:44:33.398Z,0.40
2023-02-22T00:45:33.470Z,0.40
2023-02-22T00:46:33.420Z,0.50
2023-02-22T00:47:33.403Z,0.40
2023-02-22T00:48:33.394Z,0.60
2023-02-22T00:49:33.405Z,0.40
2023-02-22T00:50:33.393Z,0.50
2023-02-22T00:51:33.403Z,0.50
2023-02-22T00:52:33.398Z,0.40
2023-02-22T00:53:33.399Z,0.50
2023-02-22T00:54:33.390Z,0.60
2023-02-22T00:55:33.405Z,0.50
2023-02-22T00:56:33.388Z,0.40
2023-02-22T00:57:33.403Z,0.60
2023-02-22T00:58:33.386Z,0.50
2023-02-22T00:59:33.393Z,0.50
2023-02-22T01:00:33.387Z,0.50
2023-02-22T01:01:33.458Z,0.40
2023-02-22T01:02:33.419Z,0.40
2023-02-22T01:03:33.391Z,0.60
2023-02-22T01:04:33.384Z,0.40
2023-02-22T01:05:33.389Z,0.30
2023-02-22T01:06:33.387Z,0.50
2023-02-22T01:07:33.388Z,0.50
2023-02-22T01:08:33.380Z,0.40
2023-02-22T01:09:33.392Z,0.50
2023-02-22T01:10:33.383Z,0.50
2023-02-22T01:11:33.385Z,0.50
2023-02-22T01:12:33.381Z,0.50
2023-02-22T01:13:33.385Z,0.40
2023-02-22T01:14:33.377Z,0.60
2023-02-22T01:15:33.384Z,0.40
2023-02-22T01:16:33.391Z,0.40
2023-02-22T01:17:33.383Z,0.40
2023-02-22T01:18:33.398Z,0.50
2023-02-22T01:19:33.386Z,0.50
2023-02-22T01:20:33.416Z,0.50
2023-02-22T01:21:33.374Z,0.50
2023-02-22T01:22:33.378Z,0.50
2023-02-22T01:23:33.371Z,0.50
2023-02-22T01:24:33.383Z,0.50
2023-02-22T01:25:33.369Z,0.60
2023-02-22T01:26:33.376Z,0.60
2023-02-22T01:27:33.368Z,0.40
2023-02-22T01:28:33.488Z,0.60
2023-02-22T01:29:33.367Z,0.50
2023-02-22T01:30:33.562Z,0.40
2023-02-22T01:31:33.439Z,0.40
2023-02-22T01:32:33.372Z,0.40
2023-02-22T01:33:33.364Z,0.50
2023-02-22T01:34:33.392Z,0.50
2023-02-22T01:35:33.364Z,0.50
2023-02-22T01:36:33.371Z,0.40
2023-02-22T01:37:33.363Z,0.50
2023-02-22T01:38:33.365Z,0.50
2023-02-22T01:39:33.364Z,0.40
2023-02-22T01:40:33.363Z,0.50
2023-02-22T01:41:33.358Z,0.50
2023-02-22T01:42:33.363Z,0.50
2023-02-22T01:43:33.355Z,0.50
2023-02-22T01:44:33.363Z,0.50
2023-02-22T01:45:33.355Z,0.50
2023-02-22T01:46:33.360Z,0.40
2023-02-22T01:47:33.352Z,0.50
2023-02-22T01:48:33.363Z,0.70
2023-02-22T01:49:33.351Z,0.50
2023-02-22T01:50:33.387Z,0.60
2023-02-22T01:51:33.349Z,0.60
2023-02-22T01:52:33.360Z,0.50
2023-02-22T01:53:33.372Z,0.40
2023-02-22T01:54:33.356Z,0.50
2023-02-22T01:55:33.346Z,0.60
2023-02-22T01:56:33.388Z,0.50
2023-02-22T01:57:33.351Z,0.50
2023-02-22T01:58:33.354Z,0.60
2023-02-22T01:59:33.344Z,0.50
2023-02-22T02:00:33.349Z,0.50
2023-02-22T02:01:33.342Z,0.60
2023-02-22T02:02:33.349Z,0.60
2023-02-22T02:03:33.353Z,0.50
2023-02-22T02:04:33.347Z,0.50
2023-02-22T02:05:33.338Z,0.50
2023-02-22T02:06:33.374Z,0.60
2023-02-22T02:07:33.338Z,0.60
2023-02-22T02:08:33.345Z,0.60
2023-02-22T02:09:33.339Z,0.50
2023-02-22T02:10:33.343Z,0.50
2023-02-22T02:11:33.337Z,0.70
2023-02-22T02:12:33.346Z,0.50
2023-02-22T02:13:33.337Z,0.50
2023-02-22T02:14:33.342Z,0.60
2023-02-22T02:15:33.334Z,0.50
2023-02-22T02:16:33.384Z,0.50
2023-02-22T02:17:33.334Z,0.60
2023-02-22T02:18:33.340Z,0.60
2023-02-22T02:19:33.332Z,0.60
2023-02-22T02:20:33.343Z,0.50
2023-02-22T02:21:33.333Z,0.60
2023-02-22T02:22:33.378Z,0.50
2023-02-22T02:23:33.333Z,0.50
2023-02-22T02:24:33.338Z,0.50
2023-02-22T02:25:33.329Z,0.60
2023-02-22T02:26:33.334Z,0.60
2023-02-22T02:27:33.327Z,0.50
2023-02-22T02:28:33.334Z,0.50
2023-02-22T02:29:33.327Z,0.50
2023-02-22T02:30:33.337Z,0.50
2023-02-22T02:31:33.378Z,0.60
2023-02-22T02:32:33.425Z,0.60
2023-02-22T02:33:33.332Z,0.50
2023-02-22T02:34:33.332Z,0.50
2023-02-22T02:35:33.326Z,0.40
2023-02-22T02:36:33.340Z,0.40
2023-02-22T02:37:33.320Z,0.50
2023-02-22T02:38:33.379Z,0.50
2023-02-22T02:39:33.320Z,0.50
2023-02-22T02:40:33.406Z,0.60
2023-02-22T02:41:33.319Z,0.50
2023-02-22T02:42:33.329Z,0.60
2023-02-22T02:43:33.318Z,0.70
2023-02-22T02:44:33.325Z,0.60
2023-02-22T02:45:33.316Z,0.50
2023-02-22T02:46:33.327Z,0.60
2023-02-22T02:47:33.369Z,0.50
2023-02-22T02:48:33.325Z,0.50
2023-02-22T02:49:33.317Z,0.50
2023-02-22T02:50:33.322Z,0.60
2023-02-22T02:51:33.320Z,0.60
2023-02-22T02:52:33.326Z,0.60
2023-02-22T02:53:33.314Z,0.60
2023-02-22T02:54:33.347Z,0.50
2023-02-22T02:55:33.312Z,0.60
2023-02-22T02:56:33.323Z,0.50
2023-02-22T02:57:33.320Z,0.50
2023-02-22T02:58:33.330Z,0.50
2023-02-22T02:59:33.309Z,0.50
2023-02-22T03:00:33.316Z,0.60
2023-02-22T03:01:33.420Z,0.60
2023-02-22T03:02:33.320Z,0.50
2023-02-22T03:03:33.308Z,0.60
2023-02-22T03:04:33.318Z,0.50
2023-02-22T03:05:33.310Z,0.50
2023-02-22T03:06:33.317Z,0.50
2023-02-22T03:07:33.374Z,0.50
2023-02-22T03:08:33.311Z,0.50
2023-02-22T03:09:33.302Z,0.50
2023-02-22T03:10:33.331Z,0.60
2023-02-22T03:11:33.301Z,0.50
2023-02-22T03:12:33.317Z,0.60
2023-02-22T03:13:33.300Z,0.60
2023-02-22T03:14:33.309Z,0.70
2023-02-22T03:15:33.300Z,0.60
2023-02-22T03:16:33.361Z,0.60
2023-02-22T03:17:33.302Z,0.60
2023-02-22T03:18:33.305Z,0.60
2023-02-22T03:19:33.302Z,0.60
2023-02-22T03:20:33.304Z,0.50
2023-02-22T03:21:33.297Z,0.50
2023-02-22T03:22:33.302Z,0.50
2023-02-22T03:23:33.300Z,0.60
2023-02-22T03:24:33.302Z,0.70
2023-02-22T03:25:33.297Z,0.40
2023-02-22T03:26:33.325Z,0.60
2023-02-22T03:27:33.293Z,0.60
2023-02-22T03:28:33.309Z,0.50
2023-02-22T03:29:33.308Z,0.70
2023-02-22T03:30:33.308Z,0.60
2023-02-22T03:31:33.371Z,0.60
2023-02-22T03:32:33.303Z,0.60
2023-02-22T03:33:33.290Z,0.60
2023-02-22T03:34:33.297Z,0.60
2023-02-22T03:35:33.294Z,0.60
2023-02-22T03:36:33.296Z,0.60
2023-02-22T03:37:33.290Z,0.80
2023-02-22T03:38:33.308Z,0.60
2023-02-22T03:39:33.288Z,0.60
2023-02-22T03:40:33.294Z,0.60
2023-02-22T03:41:33.299Z,0.60
2023-02-22T03:42:33.318Z,0.60
2023-02-22T03:43:33.285Z,0.70
2023-02-22T03:44:33.291Z,0.70
2023-02-22T03:45:33.284Z,0.60
2023-02-22T03:46:33.337Z,0.50
2023-02-22T03:47:33.284Z,0.60
2023-02-22T03:48:33.290Z,0.60
2023-02-22T03:49:33.286Z,0.60
2023-02-22T03:50:33.292Z,0.60
2023-02-22T03:51:33.283Z,0.70
2023-02-22T03:52:33.287Z,0.60
2023-02-22T03:53:33.277Z,0.60
2023-02-22T03:54:33.284Z,0.50
2023-02-22T03:55:33.279Z,0.50
2023-02-22T03:56:34.562Z,0.70
2023-02-22T03:57:33.278Z,0.60
2023-02-22T03:58:33.302Z,0.50
2023-02-22T03:59:33.276Z,0.60
2023-02-22T04:00:33.280Z,0.70
2023-02-22T04:01:33.283Z,0.70
2023-02-22T04:02:33.278Z,0.60
2023-02-22T04:03:33.272Z,0.60
2023-02-22T04:04:33.305Z,0.80
2023-02-22T04:05:33.276Z,0.70
2023-02-22T04:06:33.279Z,0.60
2023-02-22T04:07:33.269Z,0.70
2023-02-22T04:08:33.281Z,0.80
2023-02-22T04:09:33.275Z,0.50
2023-02-22T04:10:33.280Z,0.70
2023-02-22T04:11:33.267Z,0.50
2023-02-22T04:12:33.274Z,0.50
2023-02-22T04:13:33.269Z,0.60
2023-02-22T04:14:33.302Z,0.70
2023-02-22T04:15:33.266Z,0.60
2023-02-22T04:16:33.271Z,0.60
2023-02-22T04:17:33.264Z,0.60
2023-02-22T04:18:33.269Z,0.60
2023-02-22T04:19:33.262Z,0.70
2023-02-22T04:20:33.270Z,0.70
2023-02-22T04:21:33.267Z,0.70
2023-02-22T04:22:33.268Z,0.60
2023-02-22T04:23:33.261Z,0.60
2023-02-22T04:24:33.268Z,0.50
2023-02-22T04:25:33.258Z,0.60
2023-02-22T04:26:33.265Z,0.50
2023-02-22T04:27:33.259Z,0.60
2023-02-22T04:28:33.263Z,0.60
2023-02-22T04:29:33.262Z,0.60
2023-02-22T04:30:33.348Z,0.70
2023-02-22T04:31:33.270Z,0.60
2023-02-22T04:32:33.274Z,0.50
2023-02-22T04:33:33.253Z,0.60
2023-02-22T04:34:33.263Z,0.50
2023-02-22T04:35:35.521Z,0.60
2023-02-22T04:36:33.259Z,0.60
2023-02-22T04:37:33.253Z,0.60
2023-02-22T04:38:33.258Z,0.70
2023-02-22T04:39:33.301Z,0.60
2023-02-22T04:40:33.260Z,0.70
2023-02-22T04:41:33.264Z,0.70
2023-02-22T04:42:33.254Z,0.70
2023-02-22T04:43:33.249Z,0.60
2023-02-22T04:44:33.253Z,0.80
2023-02-22T04:45:33.244Z,0.80
2023-02-22T04:46:33.319Z,0.60
2023-02-22T04:47:33.245Z,0.60
2023-02-22T04:48:33.249Z,0.70
2023-02-22T04:49:33.242Z,0.70
2023-02-22T04:50:33.249Z,0.60
2023-02-22T04:51:33.240Z,0.60
2023-02-22T04:52:33.250Z,0.60
2023-02-22T04:53:33.241Z,0.70
2023-02-22T04:54:33.254Z,0.60
2023-02-22T04:55:33.239Z,0.70
2023-02-22T04:56:33.247Z,0.70
2023-02-22T04:57:33.241Z,0.60
2023-02-22T04:58:33.245Z,0.70
2023-02-22T04:59:33.241Z,0.70
2023-02-22T05:00:33.243Z,0.50
2023-02-22T05:01:33.237Z,0.70
2023-02-22T05:02:33.311Z,0.70
2023-02-22T05:03:33.232Z,0.80
2023-02-22T05:04:33.261Z,0.60
2023-02-22T05:05:33.233Z,0.70
2023-02-22T05:06:33.247Z,0.70
2023-02-22T05:07:33.229Z,0.80
2023-02-22T05:08:33.237Z,0.60
2023-02-22T05:09:33.228Z,0.70
2023-02-22T05:10:33.234Z,0.70
2023-02-22T05:11:33.228Z,0.80
2023-02-22T05:12:33.234Z,0.80
2023-02-22T05:13:33.227Z,0.70
2023-02-22T05:14:33.240Z,0.70
2023-02-22T05:15:33.224Z,0.70
2023-02-22T05:16:33.231Z,0.70
2023-02-22T05:17:33.223Z,0.80
2023-02-22T05:18:33.260Z,0.70
2023-02-22T05:19:33.229Z,0.60
2023-02-22T05:20:33.234Z,0.60
2023-02-22T05:21:33.221Z,0.70
2023-02-22T05:22:33.229Z,0.60
2023-02-22T05:23:33.226Z,0.80
2023-02-22T05:24:33.231Z,0.60
2023-02-22T05:25:33.282Z,0.80
2023-02-22T05:26:33.224Z,0.70
2023-02-22T05:27:33.221Z,0.80
2023-02-22T05:28:33.224Z,0.80
2023-02-22T05:29:33.216Z,0.80
2023-02-22T05:30:33.332Z,0.70
2023-02-22T05:31:33.348Z,0.80
2023-02-22T05:32:33.228Z,0.70
2023-02-22T05:33:33.216Z,0.70
2023-02-22T05:34:33.243Z,0.60
2023-02-22T05:35:33.213Z,0.70
2023-02-22T05:36:33.215Z,0.70
2023-02-22T05:37:33.223Z,0.70
2023-02-22T05:38:33.209Z,0.70
2023-02-22T05:39:33.220Z,0.90
2023-02-22T05:40:33.215Z,0.80
2023-02-22T05:41:33.219Z,0.60
2023-02-22T05:42:33.209Z,0.90
2023-02-22T05:43:33.217Z,0.80
2023-02-22T05:44:33.209Z,0.60
2023-02-22T05:45:33.217Z,0.70
2023-02-22T05:46:33.243Z,0.70
2023-02-22T05:47:33.214Z,0.70
2023-02-22T05:48:33.206Z,0.70
2023-02-22T05:49:33.220Z,0.80
2023-02-22T05:50:33.344Z,0.90
2023-02-22T05:51:33.212Z,0.70
2023-02-22T05:52:33.205Z,0.70
2023-02-22T05:53:33.211Z,0.70
2023-02-22T05:54:33.209Z,0.60
2023-02-22T05:55:33.212Z,0.60
2023-02-22T05:56:33.200Z,0.60
2023-02-22T05:57:33.208Z,0.70
2023-02-22T05:58:33.201Z,0.60
2023-02-22T05:59:33.204Z,0.60
2023-02-22T06:00:33.211Z,0.80
2023-02-22T06:01:33.218Z,0.70
2023-02-22T06:02:33.193Z,0.70
2023-02-22T06:03:33.203Z,0.80
2023-02-22T06:04:33.194Z,0.70
2023-02-22T06:05:33.309Z,0.70
2023-02-22T06:06:33.210Z,0.70
2023-02-22T06:07:33.197Z,0.80
2023-02-22T06:08:33.189Z,0.70
2023-02-22T06:09:33.197Z,0.60
2023-02-22T06:10:33.190Z,0.60
2023-02-22T06:11:33.193Z,0.70
2023-02-22T06:12:33.192Z,0.60
2023-02-22T06:13:33.197Z,0.70
2023-02-22T06:14:33.183Z,0.70
2023-02-22T06:15:33.191Z,0.50
2023-02-22T06:16:33.289Z,0.60
2023-02-22T06:17:33.193Z,0.60
2023-02-22T06:18:33.183Z,0.60
2023-02-22T06:19:33.188Z,0.70
2023-02-22T06:20:33.180Z,0.70
2023-02-22T06:21:33.217Z,0.70
2023-02-22T06:22:33.200Z,0.70
2023-02-22T06:23:33.186Z,0.60
2023-02-22T06:24:33.178Z,0.50
2023-02-22T06:25:33.184Z,0.60
2023-02-22T06:26:33.189Z,0.60
2023-02-22T06:27:33.185Z,0.80
2023-02-22T06:28:33.176Z,0.50
2023-02-22T06:29:33.180Z,0.60
2023-02-22T06:30:33.251Z,0.60
2023-02-22T06:31:33.227Z,0.70
2023-02-22T06:32:33.174Z,0.80
2023-02-22T06:33:33.188Z,0.70
2023-02-22T06:34:33.169Z,0.70
2023-02-22T06:35:33.178Z,0.50
2023-02-22T06:36:33.170Z,0.60
2023-02-22T06:37:33.178Z,0.60
2023-02-22T06:38:33.194Z,0.60
2023-02-22T06:39:33.175Z,0.70
2023-02-22T06:40:33.166Z,0.60
2023-02-22T06:41:33.173Z,0.70
2023-02-22T06:42:33.197Z,0.50
2023-02-22T06:43:33.173Z,0.60
2023-02-22T06:44:33.166Z,0.60
2023-02-22T06:45:33.207Z,0.70
2023-02-22T06:46:33.162Z,0.60
2023-02-22T06:47:33.170Z,0.60
2023-02-22T06:48:33.162Z,0.50
2023-02-22T06:49:33.172Z,0.70
2023-02-22T06:50:35.682Z,0.70
2023-02-22T06:51:33.168Z,0.60
2023-02-22T06:52:33.162Z,0.50
2023-02-22T06:53:33.178Z,0.60
2023-02-22T06:54:33.189Z,0.50
2023-02-22T06:55:33.168Z,0.60
2023-02-22T06:56:33.159Z,0.60
2023-02-22T06:57:33.165Z,0.60
2023-02-22T06:58:33.157Z,0.60
2023-02-22T06:59:33.166Z,0.60
2023-02-22T07:00:33.272Z,0.60
2023-02-22T07:01:33.164Z,0.70
2023-02-22T07:02:33.161Z,0.90
2023-02-22T07:03:33.206Z,0.60
2023-02-22T07:04:33.180Z,0.60
2023-02-22T07:05:33.166Z,0.60
2023-02-22T07:06:33.158Z,0.70
2023-02-22T07:07:33.166Z,0.60
2023-02-22T07:08:33.158Z,0.60
2023-02-22T07:09:33.167Z,0.60
2023-02-22T07:10:33.181Z,0.60
2023-02-22T07:11:33.164Z,0.80
2023-02-22T07:12:33.158Z,0.60
2023-02-22T07:13:33.171Z,0.60
2023-02-22T07:14:33.168Z,0.60
2023-02-22T07:15:33.178Z,0.60
2023-02-22T07:16:33.178Z,0.70
2023-02-22T07:17:33.165Z,0.70
2023-02-22T07:18:33.163Z,0.70
2023-02-22T07:19:33.163Z,0.60
2023-02-22T07:20:33.153Z,0.80
2023-02-22T07:21:33.164Z,0.60
2023-02-22T07:22:33.159Z,0.60
2023-02-22T07:23:33.165Z,0.70
2023-02-22T07:24:33.157Z,0.70
2023-02-22T07:25:33.165Z,0.60
2023-02-22T07:26:33.175Z,0.70
2023-02-22T07:27:33.160Z,0.80
2023-02-22T07:28:33.159Z,0.70
2023-02-22T07:29:33.161Z,0.70
2023-02-22T07:30:33.266Z,0.70
2023-02-22T07:31:33.160Z,0.60
2023-02-22T07:32:33.282Z,0.90
2023-02-22T07:33:33.160Z,0.80
2023-02-22T07:34:33.152Z,0.60
2023-02-22T07:35:33.160Z,0.70
2023-02-22T07:36:33.152Z,0.50
2023-02-22T07:37:33.162Z,0.80
2023-02-22T07:38:33.151Z,0.60
2023-02-22T07:39:33.159Z,0.60
2023-02-22T07:40:33.152Z,0.60
2023-02-22T07:41:33.157Z,0.50
2023-02-22T07:42:33.175Z,0.70
2023-02-22T07:43:33.157Z,0.70
2023-02-22T07:44:33.151Z,0.60
2023-02-22T07:45:33.333Z,1.00
2023-02-22T07:46:33.150Z,0.90
2023-02-22T07:47:33.156Z,0.70
2023-02-22T07:48:33.171Z,0.70
2023-02-22T07:49:33.158Z,0.60
2023-02-22T07:50:33.148Z,0.70
2023-02-22T07:51:33.161Z,0.70
2023-02-22T07:52:33.151Z,0.70
2023-02-22T07:53:33.185Z,0.70
2023-02-22T07:54:33.150Z,0.70
2023-02-22T07:55:33.163Z,0.70
2023-02-22T07:56:33.149Z,0.70
2023-02-22T07:57:33.158Z,0.60
2023-02-22T07:58:33.198Z,0.60
2023-02-22T07:59:33.158Z,0.80
2023-02-22T08:00:33.151Z,0.80
2023-02-22T08:01:33.164Z,0.70
2023-02-22T08:02:33.179Z,0.70
2023-02-22T08:03:33.196Z,0.70
2023-02-22T08:04:33.147Z,0.70
2023-02-22T08:05:33.156Z,0.70
2023-02-22T08:06:33.147Z,0.80
2023-02-22T08:07:33.157Z,0.60
2023-02-22T08:08:33.149Z,0.70
2023-02-22T08:09:33.160Z,0.70
2023-02-22T08:10:33.146Z,0.60
2023-02-22T08:11:33.156Z,0.70
2023-02-22T08:12:33.148Z,0.70
2023-02-22T08:13:33.154Z,0.70
2023-02-22T08:14:33.176Z,0.50
2023-02-22T08:15:33.156Z,0.70
2023-02-22T08:16:33.278Z,0.80
2023-02-22T08:17:33.157Z,0.70
2023-02-22T08:18:33.148Z,0.60
2023-02-22T08:19:33.153Z,0.60
2023-02-22T08:20:33.148Z,0.70
2023-02-22T08:21:33.162Z,0.70
2023-02-22T08:22:33.147Z,0.70
2023-02-22T08:23:33.159Z,0.70
2023-02-22T08:24:33.148Z,0.70
2023-02-22T08:25:33.161Z,0.80
2023-02-22T08:26:33.162Z,0.60
2023-02-22T08:27:33.172Z,0.70
2023-02-22T08:28:33.146Z,0.60
2023-02-22T08:29:33.156Z,0.70
2023-02-22T08:30:33.262Z,0.70
2023-02-22T08:31:33.190Z,0.70
2023-02-22T08:32:33.365Z,0.70
2023-02-22T08:33:33.155Z,0.60
2023-02-22T08:34:33.146Z,0.60
2023-02-22T08:35:33.156Z,0.70
2023-02-22T08:36:33.146Z,0.80
2023-02-22T08:37:33.166Z,0.60
2023-02-22T08:38:33.161Z,0.70
2023-02-22T08:39:33.156Z,0.60
2023-02-22T08:40:33.157Z,0.80
2023-02-22T08:41:33.155Z,0.70
2023-02-22T08:42:33.148Z,0.80
2023-02-22T08:43:33.154Z,0.70
2023-02-22T08:44:33.153Z,0.60
2023-02-22T08:45:33.210Z,0.60
2023-02-22T08:46:33.167Z,0.60
2023-02-22T08:47:33.153Z,0.70
2023-02-22T08:48:33.145Z,0.50
2023-02-22T08:49:33.153Z,1.00
2023-02-22T08:50:33.145Z,0.60
2023-02-22T08:51:33.153Z,0.80
2023-02-22T08:52:33.147Z,0.80
2023-02-22T08:53:33.152Z,0.70
2023-02-22T08:54:33.144Z,0.80
2023-02-22T08:55:33.159Z,0.60
2023-02-22T08:56:33.144Z,0.50
2023-02-22T08:57:33.152Z,0.70
2023-02-22T08:58:33.149Z,0.70
2023-02-22T08:59:33.152Z,0.60
2023-02-22T09:00:33.477Z,0.60
2023-02-22T09:01:33.799Z,0.80
2023-02-22T09:02:33.172Z,0.60
2023-02-22T09:03:33.268Z,0.60
2023-02-22T09:04:33.147Z,0.70
2023-02-22T09:05:33.156Z,0.50
2023-02-22T09:06:33.144Z,0.60
2023-02-22T09:07:33.169Z,0.70
2023-02-22T09:08:33.146Z,0.60
2023-02-22T09:09:33.154Z,0.60
2023-02-22T09:10:33.145Z,0.50
2023-02-22T09:11:33.163Z,0.60
2023-02-22T09:12:33.147Z,0.60
2023-02-22T09:13:33.153Z,0.70
2023-02-22T09:14:33.181Z,0.70
2023-02-22T09:15:33.149Z,0.70
2023-02-22T09:16:33.207Z,0.60
2023-02-22T09:17:33.154Z,0.60
2023-02-22T09:18:43.722Z,0.60
2023-02-22T09:19:33.156Z,0.70
2023-02-22T09:20:33.145Z,0.70
2023-02-22T09:21:33.155Z,0.70
2023-02-22T09:22:33.146Z,0.70
2023-02-22T09:23:33.155Z,0.60
2023-02-22T09:24:33.145Z,0.70
2023-02-22T09:25:33.153Z,0.60
2023-02-22T09:26:33.149Z,0.60
2023-02-22T09:27:33.152Z,0.70
2023-02-22T09:28:33.145Z,0.70
2023-02-22T09:29:33.152Z,0.70
2023-02-22T09:30:33.326Z,0.60
2023-02-22T09:31:33.299Z,0.70
2023-02-22T09:32:33.292Z,0.60
2023-02-22T09:33:33.153Z,0.70
2023-02-22T09:34:33.167Z,0.60
2023-02-22T09:35:33.154Z,0.70
2023-02-22T09:36:33.158Z,0.80
2023-02-22T09:37:33.156Z,0.70
2023-02-22T09:38:33.145Z,0.70
2023-02-22T09:39:33.164Z,0.80
2023-02-22T09:40:33.150Z,0.70
2023-02-22T09:41:36.048Z,0.70
2023-02-22T09:42:33.145Z,0.70
2023-02-22T09:43:33.155Z,0.70
2023-02-22T09:44:33.148Z,0.70
2023-02-22T09:45:33.176Z,0.70
2023-02-22T09:46:33.147Z,0.70
2023-02-22T09:47:33.181Z,0.60
2023-02-22T09:48:33.148Z,0.70
2023-02-22T09:49:33.156Z,0.60
2023-02-22T09:50:33.174Z,0.80
2023-02-22T09:51:33.155Z,0.60
2023-02-22T09:52:33.159Z,0.70
2023-02-22T09:53:33.148Z,0.60
2023-02-22T09:54:33.155Z,0.60
2023-02-22T09:55:33.159Z,0.70
2023-02-22T09:56:33.156Z,0.60
2023-02-22T09:57:33.148Z,0.60
2023-02-22T09:58:33.155Z,0.70
2023-02-22T09:59:33.148Z,0.70
2023-02-22T10:00:33.157Z,0.80
2023-02-22T10:01:33.187Z,0.60
2023-02-22T10:02:33.156Z,0.60
2023-02-22T10:03:33.157Z,0.60
2023-02-22T10:04:33.157Z,0.60
2023-02-22T10:05:33.196Z,0.60
2023-02-22T10:06:33.251Z,0.80
2023-02-22T10:07:33.165Z,0.70
2023-02-22T10:08:33.157Z,0.70
2023-02-22T10:09:33.150Z,0.60
2023-02-22T10:10:33.160Z,0.90
2023-02-22T10:11:33.151Z,0.70
2023-02-22T10:12:33.157Z,0.70
2023-02-22T10:13:33.158Z,0.70
2023-02-22T10:14:33.158Z,0.80
2023-02-22T10:15:33.151Z,0.70
2023-02-22T10:16:33.174Z,0.70
2023-02-22T10:17:33.153Z,0.60
2023-02-22T10:18:33.158Z,0.80
2023-02-22T10:19:33.160Z,0.70
2023-02-22T10:20:33.160Z,0.70
2023-02-22T10:21:33.155Z,0.70
2023-02-22T10:22:33.186Z,0.70
2023-02-22T10:23:33.153Z,0.80
2023-02-22T10:24:33.158Z,0.90
2023-02-22T10:25:33.160Z,0.70
2023-02-22T10:26:33.158Z,0.70
2023-02-22T10:27:33.169Z,0.60
2023-02-22T10:28:33.170Z,0.80
2023-02-22T10:29:33.181Z,0.80
2023-02-22T10:30:34.335Z,0.80
2023-02-22T10:31:33.310Z,0.70
2023-02-22T10:32:33.197Z,0.70
2023-02-22T10:33:33.155Z,0.80
2023-02-22T10:34:33.163Z,0.80
2023-02-22T10:35:33.159Z,0.70
2023-02-22T10:36:33.164Z,0.60
2023-02-22T10:37:33.194Z,0.70
2023-02-22T10:38:33.273Z,0.70
2023-02-22T10:39:33.205Z,0.70
2023-02-22T10:40:33.161Z,0.70
2023-02-22T10:41:33.167Z,0.90
2023-02-22T10:42:33.167Z,0.70
2023-02-22T10:43:33.158Z,0.70
2023-02-22T10:44:33.164Z,0.70
2023-02-22T10:45:33.210Z,0.70
2023-02-22T10:46:33.165Z,0.80
2023-02-22T10:47:33.156Z,0.70
2023-02-22T10:48:33.163Z,0.80
2023-02-22T10:49:33.158Z,0.60
2023-02-22T10:50:33.174Z,0.60
2023-02-22T10:51:33.156Z,0.80
2023-02-22T10:52:33.168Z,0.70
2023-02-22T10:53:35.509Z,0.70
2023-02-22T10:54:33.191Z,0.80
2023-02-22T10:55:33.158Z,0.70
2023-02-22T10:56:33.170Z,0.70
2023-02-22T10:57:33.160Z,0.70
2023-02-22T10:58:33.167Z,0.80
2023-02-22T10:59:33.162Z,0.70
2023-02-22T11:00:33.165Z,0.80
2023-02-22T11:01:33.247Z,0.70
2023-02-22T11:02:33.167Z,0.70
2023-02-22T11:03:33.156Z,0.60
2023-02-22T11:04:33.165Z,0.70
2023-02-22T11:05:33.167Z,0.80
2023-02-22T11:06:33.168Z,0.80
2023-02-22T11:07:33.163Z,0.80
2023-02-22T11:08:33.168Z,0.80
2023-02-22T11:09:33.169Z,0.70
2023-02-22T11:10:33.184Z,0.70
2023-02-22T11:11:33.155Z,0.80
2023-02-22T11:12:33.179Z,0.70
2023-02-22T11:13:33.157Z,0.80
2023-02-22T11:14:33.161Z,0.80
2023-02-22T11:15:33.154Z,0.80
2023-02-22T11:16:33.206Z,0.70
2023-02-22T11:17:33.156Z,0.60
2023-02-22T11:18:33.159Z,0.70
2023-02-22T11:19:33.156Z,0.80
2023-02-22T11:20:33.163Z,0.80
2023-02-22T11:21:33.162Z,0.70
2023-02-22T11:22:33.161Z,0.80
2023-02-22T11:23:33.158Z,0.80
2023-02-22T11:24:48.535Z,0.90
2023-02-22T11:25:33.156Z,0.70
2023-02-22T11:26:33.198Z,0.70
2023-02-22T11:27:33.157Z,0.70
2023-02-22T11:28:33.216Z,0.70
2023-02-22T11:29:33.160Z,0.80
2023-02-22T11:30:33.265Z,0.80
2023-02-22T11:31:33.225Z,0.70
2023-02-22T11:32:33.165Z,0.70
2023-02-22T11:33:33.163Z,0.80
2023-02-22T11:34:33.162Z,0.80
2023-02-22T11:35:33.168Z,0.70
2023-02-22T11:36:33.161Z,0.80
2023-02-22T11:37:33.156Z,0.70
2023-02-22T11:38:33.178Z,0.70
2023-02-22T11:39:33.190Z,0.80
2023-02-22T11:40:34.745Z,0.70
2023-02-22T11:41:33.162Z,0.90
2023-02-22T11:42:33.188Z,0.60
2023-02-22T11:43:33.157Z,0.70
2023-02-22T11:44:33.158Z,0.70
2023-02-22T11:45:33.155Z,0.80
2023-02-22T11:46:33.289Z,0.70
2023-02-22T11:47:33.149Z,0.80
2023-02-22T11:48:33.157Z,1.00
2023-02-22T11:49:33.160Z,0.70
2023-02-22T11:50:33.176Z,0.80
2023-02-22T11:51:33.152Z,0.80
2023-02-22T11:52:33.159Z,0.70
2023-02-22T11:53:33.152Z,0.80
2023-02-22T11:54:33.219Z,0.80
2023-02-22T11:55:42.701Z,0.80
2023-02-22T11:56:38.176Z,0.90
2023-02-22T11:57:33.158Z,0.80
2023-02-22T11:58:33.190Z,0.70
2023-02-22T11:59:33.150Z,0.80
2023-02-22T12:00:33.158Z,0.90
2023-02-22T12:01:33.161Z,0.70
2023-02-22T12:02:33.177Z,0.80
2023-02-22T12:03:33.213Z,0.80
2023-02-22T12:04:33.390Z,0.70
2023-02-22T12:05:33.150Z,0.80
2023-02-22T12:06:33.158Z,0.70
2023-02-22T12:07:33.152Z,0.70
2023-02-22T12:08:33.158Z,0.60
2023-02-22T12:09:33.153Z,0.60
2023-02-22T12:10:33.160Z,0.80
2023-02-22T12:11:33.150Z,0.80
2023-02-22T12:12:33.158Z,0.70
2023-02-22T12:13:33.165Z,0.70
2023-02-22T12:14:33.186Z,0.70
2023-02-22T12:15:33.203Z,0.60
2023-02-22T12:16:33.163Z,0.70
2023-02-22T12:17:33.151Z,0.70
2023-02-22T12:18:33.157Z,0.70
2023-02-22T12:19:33.154Z,0.90
2023-02-22T12:20:33.156Z,0.70
2023-02-22T12:21:33.148Z,0.80
2023-02-22T12:22:33.165Z,0.80
2023-02-22T12:23:33.147Z,0.60
2023-02-22T12:24:33.155Z,0.60
2023-02-22T12:25:33.148Z,0.70
2023-02-22T12:26:33.213Z,0.70
2023-02-22T12:27:33.154Z,0.60
2023-02-22T12:28:33.208Z,0.60
2023-02-22T12:29:33.150Z,0.60
2023-02-22T12:30:33.224Z,0.70
2023-02-22T12:31:33.211Z,0.80
2023-02-22T12:32:33.199Z,0.60
2023-02-22T12:33:33.169Z,0.70
2023-02-22T12:34:33.165Z,0.70
2023-02-22T12:35:33.155Z,0.70
2023-02-22T12:36:33.161Z,0.70
2023-02-22T12:37:33.156Z,0.70
2023-02-22T12:38:33.161Z,0.60
2023-02-22T12:39:40.971Z,0.70
2023-02-22T12:40:33.167Z,0.70
2023-02-22T12:41:33.156Z,0.80
2023-02-22T12:42:33.167Z,0.70
2023-02-22T12:43:33.173Z,0.70
2023-02-22T12:44:33.162Z,0.70
2023-02-22T12:45:33.158Z,0.80
2023-02-22T12:46:33.257Z,0.70
2023-02-22T12:47:33.167Z,0.70
2023-02-22T12:48:33.181Z,0.70
2023-02-22T12:49:33.172Z,0.70
2023-02-22T12:50:33.163Z,0.80
2023-02-22T12:51:33.194Z,0.70
2023-02-22T12:52:33.166Z,0.70
2023-02-22T12:53:33.156Z,0.80
2023-02-22T12:54:33.163Z,0.70
2023-02-22T12:55:33.163Z,0.70
2023-02-22T12:56:33.178Z,0.70
2023-02-22T12:57:33.157Z,0.70
2023-02-22T12:58:33.164Z,0.70
2023-02-22T12:59:33.162Z,0.70
2023-02-22T13:00:33.164Z,0.80
2023-02-22T13:01:33.185Z,0.70
2023-02-22T13:02:33.192Z,0.60
2023-02-22T13:03:33.154Z,0.70
2023-02-22T13:04:33.172Z,0.70
2023-02-22T13:05:33.179Z,0.60
2023-02-22T13:06:33.177Z,0.70
2023-02-22T13:07:33.157Z,0.80
2023-02-22T13:08:33.163Z,0.70
2023-02-22T13:09:33.160Z,0.70
2023-02-22T13:10:33.161Z,0.60
2023-02-22T13:11:33.154Z,0.60
2023-02-22T13:12:33.162Z,0.70
2023-02-22T13:13:33.170Z,0.90
2023-02-22T13:14:33.160Z,0.80
2023-02-22T13:15:33.154Z,0.60
2023-02-22T13:16:33.164Z,0.70
2023-02-22T13:17:33.156Z,0.80
2023-02-22T13:18:33.202Z,0.70